VILK/LKO METAR and TAF weather

Enter ICAO airport designator
Station Type Date Time Source
VILK METAR 2022/09/28 18:00 UTC NOAA

VILK 281800Z 00000KT 4000 BR NSC 27/26 Q1005 NOSIG


Station Type Date Time Source
VILK Decoded METAR 2022/09/28 18:00 UTC NOAA

Lucknow / Amausi, India (VILK) 26-45N 080-53E 128M
Sep 28, 2022 - 02:00 PM EDT / 2022.09.28 1800 UTC
Wind: Calm:0
Visibility: 2 mile(s):0
Weather: mist
Temperature: 80 F (27 C)
Dew Point: 78 F (26 C)
Relative Humidity: 94%
Pressure (altimeter): 29.68 in. Hg (1005 hPa)
ob: VILK 281800Z 00000KT 4000 BR NSC 27/26 Q1005 NOSIG
cycle: 18

Station Type Date Time Source
VILK TAF 2022/09/28 18:51 UTC NOAA

TAF VILK 281700Z 2818/2924 00000KT 3000 HZ BR SCT020 SCT100
BECMG 2820/2824 2000 HZ BR
BECMG 2904/2906 4000 HZ
TEMPO 2908/2912 FEW030CB
BECMG 2916/2918 3000 HZ BR

Example: see airport list